createdAt,value
2023-08-29T00:00:40.780Z,50.852810
2023-08-29T00:01:40.863Z,50.852825
2023-08-29T00:02:40.755Z,50.852802
2023-08-29T00:03:40.756Z,50.852806
2023-08-29T00:04:40.741Z,50.852833
2023-08-29T00:05:40.693Z,50.852814
2023-08-29T00:06:40.701Z,50.852795
2023-08-29T00:07:40.720Z,50.852821
2023-08-29T00:08:40.751Z,50.852795
2023-08-29T00:09:40.714Z,50.852806
2023-08-29T00:10:40.702Z,50.852810
2023-08-29T00:11:40.657Z,50.852821
2023-08-29T00:12:40.682Z,50.852833
2023-08-29T00:13:40.683Z,50.852829
2023-08-29T00:14:40.660Z,50.852833
2023-08-29T00:15:40.665Z,50.852802
2023-08-29T00:16:40.628Z,50.852829
2023-08-29T00:17:40.708Z,50.852833
2023-08-29T00:18:40.991Z,50.852818
2023-08-29T00:19:40.595Z,50.852833
2023-08-29T00:20:40.633Z,50.852833
2023-08-29T00:21:40.591Z,50.852837
2023-08-29T00:22:40.585Z,50.852821
2023-08-29T00:23:40.597Z,50.852859
2023-08-29T00:24:40.640Z,50.852859
2023-08-29T00:25:40.538Z,50.852848
2023-08-29T00:26:40.558Z,50.852837
2023-08-29T00:27:40.525Z,50.852814
2023-08-29T00:28:40.542Z,50.852798
2023-08-29T00:29:40.546Z,50.852806
2023-08-29T00:30:44.130Z,50.852825
2023-08-29T00:31:40.673Z,50.852802
2023-08-29T00:32:40.638Z,50.852798
2023-08-29T00:33:40.476Z,50.852795
2023-08-29T00:34:40.487Z,50.852837
2023-08-29T00:35:40.531Z,50.852837
2023-08-29T00:36:40.486Z,50.852844
2023-08-29T00:37:40.464Z,50.852818
2023-08-29T00:38:40.470Z,50.852871
2023-08-29T00:39:40.556Z,50.852913
2023-08-29T00:40:40.459Z,50.852829
2023-08-29T00:41:40.445Z,50.852802
2023-08-29T00:42:40.446Z,50.852818
2023-08-29T00:43:40.426Z,50.852795
2023-08-29T00:44:40.415Z,50.852894
2023-08-29T00:45:40.418Z,50.852798
2023-08-29T00:46:40.454Z,50.852802
2023-08-29T00:47:40.418Z,50.852795
2023-08-29T00:48:40.419Z,50.852764
2023-08-29T00:49:40.392Z,50.852787
2023-08-29T00:50:40.382Z,50.852795
2023-08-29T00:51:40.360Z,50.852810
2023-08-29T00:52:40.368Z,50.852863
2023-08-29T00:53:40.371Z,50.852718
2023-08-29T00:54:40.408Z,50.852821
2023-08-29T00:55:40.350Z,50.852882
2023-08-29T00:56:40.344Z,50.852867
2023-08-29T00:57:40.324Z,50.852894
2023-08-29T00:58:40.322Z,50.852875
2023-08-29T00:59:40.305Z,50.852867
2023-08-29T01:00:40.335Z,50.852814
2023-08-29T01:01:40.392Z,50.852802
2023-08-29T01:02:40.745Z,50.852844
2023-08-29T01:03:40.283Z,50.852829
2023-08-29T01:04:40.281Z,50.852837
2023-08-29T01:05:40.282Z,50.852829
2023-08-29T01:06:40.284Z,50.852848
2023-08-29T01:07:40.254Z,50.852810
2023-08-29T01:08:40.247Z,50.852859
2023-08-29T01:09:40.227Z,50.852810
2023-08-29T01:10:40.239Z,50.852806
2023-08-29T01:11:40.311Z,50.852833
2023-08-29T01:12:40.250Z,50.852791
2023-08-29T01:13:40.196Z,50.852791
2023-08-29T01:14:40.202Z,50.852798
2023-08-29T01:15:40.238Z,50.852814
2023-08-29T01:16:40.185Z,50.852810
2023-08-29T01:17:40.238Z,50.852810
2023-08-29T01:18:40.677Z,50.852806
2023-08-29T01:19:40.149Z,50.852810
2023-08-29T01:20:40.152Z,50.852814
2023-08-29T01:21:40.128Z,50.852802
2023-08-29T01:22:40.139Z,50.852791
2023-08-29T01:23:40.171Z,50.852806
2023-08-29T01:24:40.129Z,50.852837
2023-08-29T01:25:40.128Z,50.852825
2023-08-29T01:26:40.115Z,50.852798
2023-08-29T01:27:40.078Z,50.852772
2023-08-29T01:28:40.090Z,50.852806
2023-08-29T01:29:40.090Z,50.852795
2023-08-29T01:30:40.071Z,50.852821
2023-08-29T01:31:40.096Z,50.852833
2023-08-29T01:32:40.185Z,50.852848
2023-08-29T01:33:40.080Z,50.852825
2023-08-29T01:34:40.058Z,50.852821
2023-08-29T01:35:40.059Z,50.852795
2023-08-29T01:36:40.061Z,50.852795
2023-08-29T01:37:40.007Z,50.852818
2023-08-29T01:38:40.063Z,50.852833
2023-08-29T01:39:40.031Z,50.852814
2023-08-29T01:40:40.018Z,50.852821
2023-08-29T01:41:40.068Z,50.852814
2023-08-29T01:42:40.033Z,50.852821
2023-08-29T01:43:40.017Z,50.852787
2023-08-29T01:44:40.001Z,50.852783
2023-08-29T01:45:40.149Z,50.852757
2023-08-29T01:46:39.996Z,50.852768
2023-08-29T01:47:40.022Z,50.852875
2023-08-29T01:48:40.031Z,50.852810
2023-08-29T01:49:40.060Z,50.852795
2023-08-29T01:50:39.937Z,50.852821
2023-08-29T01:51:39.909Z,50.852810
2023-08-29T01:52:39.911Z,50.852802
2023-08-29T01:53:39.921Z,50.852798
2023-08-29T01:54:39.908Z,50.852787
2023-08-29T01:55:39.881Z,50.852798
2023-08-29T01:56:39.890Z,50.852791
2023-08-29T01:57:39.885Z,50.852806
2023-08-29T01:58:39.870Z,50.852810
2023-08-29T01:59:39.863Z,50.852806
2023-08-29T02:00:39.851Z,50.852806
2023-08-29T02:01:39.888Z,50.852818
2023-08-29T02:02:39.897Z,50.852810
2023-08-29T02:03:39.819Z,50.852825
2023-08-29T02:04:39.858Z,50.852821
2023-08-29T02:05:39.817Z,50.852825
2023-08-29T02:06:39.802Z,50.852787
2023-08-29T02:07:39.788Z,50.852798
2023-08-29T02:08:39.785Z,50.852814
2023-08-29T02:09:39.789Z,50.852821
2023-08-29T02:10:39.867Z,50.852840
2023-08-29T02:11:39.750Z,50.852798
2023-08-29T02:12:39.770Z,50.852814
2023-08-29T02:13:39.786Z,50.852818
2023-08-29T02:14:39.760Z,50.852798
2023-08-29T02:15:39.736Z,50.852795
2023-08-29T02:16:39.890Z,50.852787
2023-08-29T02:17:39.821Z,50.852806
2023-08-29T02:18:39.762Z,50.852795
2023-08-29T02:19:39.717Z,50.852818
2023-08-29T02:20:39.708Z,50.852806
2023-08-29T02:21:39.707Z,50.852791
2023-08-29T02:22:39.686Z,50.852821
2023-08-29T02:23:39.691Z,50.852818
2023-08-29T02:24:39.676Z,50.852825
2023-08-29T02:25:39.644Z,50.852833
2023-08-29T02:26:39.679Z,50.852806
2023-08-29T02:27:39.622Z,50.852821
2023-08-29T02:28:39.672Z,50.852798
2023-08-29T02:29:39.661Z,50.852829
2023-08-29T02:30:39.640Z,50.852806
2023-08-29T02:31:39.602Z,50.852837
2023-08-29T02:32:39.803Z,50.852818
2023-08-29T02:33:39.970Z,50.852837
2023-08-29T02:34:39.629Z,50.852840
2023-08-29T02:35:39.560Z,50.852810
2023-08-29T02:36:39.571Z,50.852818
2023-08-29T02:37:39.548Z,50.852837
2023-08-29T02:38:39.580Z,50.852806
2023-08-29T02:39:39.608Z,50.852825
2023-08-29T02:40:39.588Z,50.852806
2023-08-29T02:41:39.553Z,50.852795
2023-08-29T02:42:39.548Z,50.852779
2023-08-29T02:43:39.520Z,50.852787
2023-08-29T02:44:39.584Z,50.852795
2023-08-29T02:45:39.497Z,50.852798
2023-08-29T02:46:39.533Z,50.852791
2023-08-29T02:47:39.537Z,50.852791
2023-08-29T02:48:39.494Z,50.852791
2023-08-29T02:49:39.461Z,50.852795
2023-08-29T02:50:39.519Z,50.852791
2023-08-29T02:51:39.467Z,50.852791
2023-08-29T02:52:39.484Z,50.852772
2023-08-29T02:53:39.443Z,50.852772
2023-08-29T02:54:39.446Z,50.852760
2023-08-29T02:55:39.462Z,50.852779
2023-08-29T02:56:39.432Z,50.852779
2023-08-29T02:57:39.420Z,50.852787
2023-08-29T02:58:39.422Z,50.852776
2023-08-29T02:59:39.422Z,50.852768
2023-08-29T03:00:39.428Z,50.852818
2023-08-29T03:01:39.456Z,50.852779
2023-08-29T03:02:39.431Z,50.852760
2023-08-29T03:03:39.492Z,50.852783
2023-08-29T03:04:39.377Z,50.852814
2023-08-29T03:05:39.358Z,50.852787
2023-08-29T03:06:39.371Z,50.852795
2023-08-29T03:07:39.359Z,50.852787
2023-08-29T03:08:39.350Z,50.852753
2023-08-29T03:09:39.323Z,50.852776
2023-08-29T03:10:39.326Z,50.852787
2023-08-29T03:11:39.301Z,50.852798
2023-08-29T03:12:39.319Z,50.852783
2023-08-29T03:13:39.326Z,50.852795
2023-08-29T03:14:39.313Z,50.852795
2023-08-29T03:15:39.266Z,50.852779
2023-08-29T03:16:39.311Z,50.852783
2023-08-29T03:17:39.329Z,50.852772
2023-08-29T03:18:39.257Z,50.852768
2023-08-29T03:19:39.273Z,50.852734
2023-08-29T03:20:39.262Z,50.852806
2023-08-29T03:21:39.236Z,50.852806
2023-08-29T03:22:39.221Z,50.852772
2023-08-29T03:23:39.255Z,50.852795
2023-08-29T03:24:39.240Z,50.852764
2023-08-29T03:25:39.191Z,50.852783
2023-08-29T03:26:39.213Z,50.852783
2023-08-29T03:27:39.198Z,50.852783
2023-08-29T03:28:39.179Z,50.852764
2023-08-29T03:29:39.188Z,50.852757
2023-08-29T03:30:39.173Z,50.852757
2023-08-29T03:31:39.141Z,50.852764
2023-08-29T03:32:39.346Z,50.852795
2023-08-29T03:33:39.146Z,50.852795
2023-08-29T03:34:39.159Z,50.852802
2023-08-29T03:35:39.112Z,50.852791
2023-08-29T03:36:39.129Z,50.852764
2023-08-29T03:37:39.091Z,50.852749
2023-08-29T03:38:39.133Z,50.852783
2023-08-29T03:39:39.109Z,50.852764
2023-08-29T03:40:39.095Z,50.852783
2023-08-29T03:41:39.082Z,50.852757
2023-08-29T03:42:39.079Z,50.852848
2023-08-29T03:43:39.063Z,50.852859
2023-08-29T03:44:39.056Z,50.852818
2023-08-29T03:45:39.095Z,50.852734
2023-08-29T03:46:39.050Z,50.852760
2023-08-29T03:47:39.044Z,50.852768
2023-08-29T03:48:39.318Z,50.852730
2023-08-29T03:49:39.019Z,50.852810
2023-08-29T03:50:39.005Z,50.852757
2023-08-29T03:51:39.029Z,50.852821
2023-08-29T03:52:39.013Z,50.852825
2023-08-29T03:53:38.970Z,50.852795
2023-08-29T03:54:38.994Z,50.852798
2023-08-29T03:55:38.963Z,50.852818
2023-08-29T03:56:40.687Z,50.852795
2023-08-29T03:57:38.967Z,50.852829
2023-08-29T03:58:38.965Z,50.852810
2023-08-29T03:59:38.928Z,50.852783
2023-08-29T04:00:39.010Z,50.852772
2023-08-29T04:01:38.950Z,50.852791
2023-08-29T04:02:38.941Z,50.852753
2023-08-29T04:03:39.022Z,50.852757
2023-08-29T04:04:39.132Z,50.852760
2023-08-29T04:05:39.027Z,50.852818
2023-08-29T04:06:38.894Z,50.852818
2023-08-29T04:07:38.896Z,50.852821
2023-08-29T04:08:38.874Z,50.852802
2023-08-29T04:09:38.853Z,50.852825
2023-08-29T04:10:38.861Z,50.852795
2023-08-29T04:11:38.840Z,50.852730
2023-08-29T04:12:38.866Z,50.852711
2023-08-29T04:13:38.837Z,50.852722
2023-08-29T04:14:38.850Z,50.852833
2023-08-29T04:15:38.828Z,50.852806
2023-08-29T04:16:38.848Z,50.852798
2023-08-29T04:17:38.844Z,50.852783
2023-08-29T04:18:38.822Z,50.852798
2023-08-29T04:19:38.806Z,50.852810
2023-08-29T04:20:38.797Z,50.852806
2023-08-29T04:21:38.771Z,50.852814
2023-08-29T04:22:38.801Z,50.852791
2023-08-29T04:23:38.744Z,50.852753
2023-08-29T04:24:38.774Z,50.852715
2023-08-29T04:25:38.746Z,50.852741
2023-08-29T04:26:38.752Z,50.852764
2023-08-29T04:27:38.706Z,50.852757
2023-08-29T04:28:38.752Z,50.852776
2023-08-29T04:29:38.708Z,50.852783
2023-08-29T04:30:38.720Z,50.852791
2023-08-29T04:31:38.724Z,50.852779
2023-08-29T04:32:38.844Z,50.852798
2023-08-29T04:33:38.685Z,50.852779
2023-08-29T04:34:38.769Z,50.852783
2023-08-29T04:35:38.665Z,50.852783
2023-08-29T04:36:38.671Z,50.852783
2023-08-29T04:37:38.648Z,50.852787
2023-08-29T04:38:38.686Z,50.852798
2023-08-29T04:39:40.055Z,50.852806
2023-08-29T04:40:38.644Z,50.852821
2023-08-29T04:41:38.649Z,50.852802
2023-08-29T04:42:38.640Z,50.852825
2023-08-29T04:43:38.599Z,50.852791
2023-08-29T04:44:38.618Z,50.852760
2023-08-29T04:45:38.607Z,50.852776
2023-08-29T04:46:38.607Z,50.852737
2023-08-29T04:47:38.583Z,50.852737
2023-08-29T04:48:38.595Z,50.852814
2023-08-29T04:49:38.605Z,50.852787
2023-08-29T04:50:38.586Z,50.852772
2023-08-29T04:51:38.543Z,50.852783
2023-08-29T04:52:38.572Z,50.852795
2023-08-29T04:53:38.522Z,50.852787
2023-08-29T04:54:38.559Z,50.852829
2023-08-29T04:55:38.538Z,50.852779
2023-08-29T04:56:38.514Z,50.852833
2023-08-29T04:57:38.526Z,50.852741
2023-08-29T04:58:38.499Z,50.852825
2023-08-29T04:59:38.477Z,50.852825
2023-08-29T05:00:38.497Z,50.852844
2023-08-29T05:01:38.520Z,50.852837
2023-08-29T05:02:38.473Z,50.852825
2023-08-29T05:03:38.484Z,50.852814
2023-08-29T05:04:38.517Z,50.852818
2023-08-29T05:05:38.435Z,50.852802
2023-08-29T05:06:38.442Z,50.852802
2023-08-29T05:07:38.443Z,50.852802
2023-08-29T05:08:38.440Z,50.852814
2023-08-29T05:09:38.413Z,50.852818
2023-08-29T05:10:38.447Z,50.852802
2023-08-29T05:11:38.420Z,50.852821
2023-08-29T05:12:38.395Z,50.852818
2023-08-29T05:13:38.396Z,50.852787
2023-08-29T05:14:38.408Z,50.852795
2023-08-29T05:15:40.636Z,50.852798
2023-08-29T05:16:38.400Z,50.852802
2023-08-29T05:17:38.372Z,50.852810
2023-08-29T05:18:38.358Z,50.852798
2023-08-29T05:19:38.352Z,50.852795
2023-08-29T05:20:38.389Z,50.852814
2023-08-29T05:21:38.331Z,50.852802
2023-08-29T05:22:38.348Z,50.852787
2023-08-29T05:23:38.337Z,50.852772
2023-08-29T05:24:38.335Z,50.852818
2023-08-29T05:25:38.318Z,50.852810
2023-08-29T05:26:38.295Z,50.852814
2023-08-29T05:27:38.284Z,50.852814
2023-08-29T05:28:38.283Z,50.852825
2023-08-29T05:29:38.278Z,50.852818
2023-08-29T05:30:38.288Z,50.852814
2023-08-29T05:31:38.307Z,50.852818
2023-08-29T05:32:38.263Z,50.852802
2023-08-29T05:33:38.236Z,50.852810
2023-08-29T05:34:38.307Z,50.852810
2023-08-29T05:35:38.237Z,50.852798
2023-08-29T05:36:38.256Z,50.852802
2023-08-29T05:37:38.219Z,50.852825
2023-08-29T05:38:38.209Z,50.852814
2023-08-29T05:39:38.172Z,50.852814
2023-08-29T05:40:38.199Z,50.852821
2023-08-29T05:41:38.156Z,50.852818
2023-08-29T05:42:38.184Z,50.852818
2023-08-29T05:43:38.158Z,50.852798
2023-08-29T05:44:38.171Z,50.852821
2023-08-29T05:45:38.129Z,50.852825
2023-08-29T05:46:38.163Z,50.852810
2023-08-29T05:47:38.142Z,50.852798
2023-08-29T05:48:38.119Z,50.852833
2023-08-29T05:49:38.135Z,50.852791
2023-08-29T05:50:38.132Z,50.852814
2023-08-29T05:51:38.094Z,50.852818
2023-08-29T05:52:38.083Z,50.852833
2023-08-29T05:53:38.071Z,50.852856
2023-08-29T05:54:38.093Z,50.852856
2023-08-29T05:55:38.052Z,50.852810
2023-08-29T05:56:38.086Z,50.852814
2023-08-29T05:57:38.042Z,50.852802
2023-08-29T05:58:38.060Z,50.852810
2023-08-29T05:59:38.060Z,50.852825
2023-08-29T06:00:38.062Z,50.852829
2023-08-29T06:01:38.009Z,50.852840
2023-08-29T06:02:38.053Z,50.852844
2023-08-29T06:03:38.089Z,50.852852
2023-08-29T06:04:38.019Z,50.852833
2023-08-29T06:05:37.992Z,50.852825
2023-08-29T06:06:38.021Z,50.852837
2023-08-29T06:07:37.978Z,50.852856
2023-08-29T06:08:37.999Z,50.852856
2023-08-29T06:09:37.966Z,50.852863
2023-08-29T06:10:37.980Z,50.852859
2023-08-29T06:11:37.954Z,50.852852
2023-08-29T06:12:37.959Z,50.852840
2023-08-29T06:13:37.966Z,50.852898
2023-08-29T06:14:37.935Z,50.852863
2023-08-29T06:15:38.050Z,50.852791
2023-08-29T06:16:37.956Z,50.852806
2023-08-29T06:17:37.926Z,50.852818
2023-08-29T06:18:37.928Z,50.852783
2023-08-29T06:19:37.886Z,50.852795
2023-08-29T06:20:37.875Z,50.852795
2023-08-29T06:21:37.867Z,50.852806
2023-08-29T06:22:37.906Z,50.852818
2023-08-29T06:23:37.899Z,50.852825
2023-08-29T06:24:37.844Z,50.852806
2023-08-29T06:25:37.821Z,50.852795
2023-08-29T06:26:37.828Z,50.852814
2023-08-29T06:27:37.836Z,50.852814
2023-08-29T06:28:37.848Z,50.852844
2023-08-29T06:29:37.795Z,50.852795
2023-08-29T06:30:37.869Z,50.852829
2023-08-29T06:31:37.773Z,50.852798
2023-08-29T06:32:37.838Z,50.852818
2023-08-29T06:33:37.762Z,50.852848
2023-08-29T06:34:37.789Z,50.852840
2023-08-29T06:35:37.747Z,50.852829
2023-08-29T06:36:37.769Z,50.852821
2023-08-29T06:37:37.759Z,50.852829
2023-08-29T06:38:37.802Z,50.852791
2023-08-29T06:39:37.728Z,50.852810
2023-08-29T06:40:37.770Z,50.852806
2023-08-29T06:41:37.700Z,50.852776
2023-08-29T06:42:37.718Z,50.852783
2023-08-29T06:43:37.684Z,50.852818
2023-08-29T06:44:37.728Z,50.852821
2023-08-29T06:45:37.689Z,50.852806
2023-08-29T06:46:37.710Z,50.852776
2023-08-29T06:47:37.698Z,50.852776
2023-08-29T06:48:37.666Z,50.852829
2023-08-29T06:49:37.633Z,50.852814
2023-08-29T06:50:37.664Z,50.852798
2023-08-29T06:51:37.633Z,50.852810
2023-08-29T06:52:37.641Z,50.852863
2023-08-29T06:53:37.606Z,50.852848
2023-08-29T06:54:37.620Z,50.852856
2023-08-29T06:55:37.586Z,50.852875
2023-08-29T06:56:37.662Z,50.852863
2023-08-29T06:57:37.604Z,50.852821
2023-08-29T06:58:37.610Z,50.852787
2023-08-29T06:59:37.589Z,50.852875
2023-08-29T07:00:37.658Z,50.852856
2023-08-29T07:01:37.550Z,50.852852
2023-08-29T07:02:37.613Z,50.852867
2023-08-29T07:03:37.642Z,50.852818
2023-08-29T07:04:37.559Z,50.852821
2023-08-29T07:05:37.533Z,50.852821
2023-08-29T07:06:37.539Z,50.852760
2023-08-29T07:07:37.650Z,50.852787
2023-08-29T07:08:37.542Z,50.852810
2023-08-29T07:09:37.496Z,50.852833
2023-08-29T07:10:37.511Z,50.852810
2023-08-29T07:11:37.508Z,50.852852
2023-08-29T07:12:37.480Z,50.852840
2023-08-29T07:13:37.457Z,50.852802
2023-08-29T07:14:37.480Z,50.852818
2023-08-29T07:15:37.456Z,50.852879
2023-08-29T07:16:37.597Z,50.852848
2023-08-29T07:17:37.438Z,50.852825
2023-08-29T07:18:37.442Z,50.852810
2023-08-29T07:19:37.454Z,50.852818
2023-08-29T07:20:37.453Z,50.852821
2023-08-29T07:21:37.404Z,50.852802
2023-08-29T07:22:37.428Z,50.852810
2023-08-29T07:23:37.388Z,50.852810
2023-08-29T07:24:37.404Z,50.852749
2023-08-29T07:25:37.373Z,50.852791
2023-08-29T07:26:37.400Z,50.852802
2023-08-29T07:27:37.389Z,50.852783
2023-08-29T07:28:37.353Z,50.852768
2023-08-29T07:29:37.384Z,50.852798
2023-08-29T07:30:37.364Z,50.852795
2023-08-29T07:31:38.770Z,50.852768
2023-08-29T07:32:37.352Z,50.852802
2023-08-29T07:33:37.347Z,50.852787
2023-08-29T07:34:37.310Z,50.852791
2023-08-29T07:35:37.288Z,50.852787
2023-08-29T07:36:37.315Z,50.852757
2023-08-29T07:37:38.343Z,50.852787
2023-08-29T07:38:37.339Z,50.852783
2023-08-29T07:39:37.295Z,50.852806
2023-08-29T07:40:37.258Z,50.852814
2023-08-29T07:41:37.232Z,50.852783
2023-08-29T07:42:37.256Z,50.852726
2023-08-29T07:43:37.241Z,50.852711
2023-08-29T07:44:37.231Z,50.852745
2023-08-29T07:45:37.233Z,50.852734
2023-08-29T07:46:37.265Z,50.852764
2023-08-29T07:47:37.195Z,50.852791
2023-08-29T07:48:37.209Z,50.852779
2023-08-29T07:49:37.181Z,50.852760
2023-08-29T07:50:37.196Z,50.852776
2023-08-29T07:51:37.195Z,50.852760
2023-08-29T07:52:38.293Z,50.852768
2023-08-29T07:53:37.210Z,50.852787
2023-08-29T07:54:37.162Z,50.852768
2023-08-29T07:55:37.171Z,50.852757
2023-08-29T07:56:37.151Z,50.852783
2023-08-29T07:57:37.161Z,50.852818
2023-08-29T07:58:37.126Z,50.852795
2023-08-29T07:59:37.094Z,50.852787
2023-08-29T08:00:37.108Z,50.852798
2023-08-29T08:01:37.123Z,50.852764
2023-08-29T08:02:37.153Z,50.852779
2023-08-29T08:03:37.107Z,50.852825
2023-08-29T08:04:37.109Z,50.852806
2023-08-29T08:05:37.067Z,50.852787
2023-08-29T08:06:37.075Z,50.852776
2023-08-29T08:07:37.044Z,50.852757
2023-08-29T08:08:37.059Z,50.852764
2023-08-29T08:09:37.025Z,50.852768
2023-08-29T08:10:37.060Z,50.852764
2023-08-29T08:11:37.041Z,50.852814
2023-08-29T08:12:37.016Z,50.852783
2023-08-29T08:13:37.005Z,50.852810
2023-08-29T08:14:36.990Z,50.852741
2023-08-29T08:15:36.988Z,50.852818
2023-08-29T08:16:37.049Z,50.852757
2023-08-29T08:17:37.032Z,50.852745
2023-08-29T08:18:36.959Z,50.852753
2023-08-29T08:19:36.958Z,50.852779
2023-08-29T08:20:36.957Z,50.852791
2023-08-29T08:21:36.919Z,50.852791
2023-08-29T08:22:36.938Z,50.852783
2023-08-29T08:23:36.911Z,50.852768
2023-08-29T08:24:36.911Z,50.852760
2023-08-29T08:25:36.883Z,50.852753
2023-08-29T08:26:36.924Z,50.852737
2023-08-29T08:27:36.872Z,50.852768
2023-08-29T08:28:36.898Z,50.852757
2023-08-29T08:29:36.868Z,50.852757
2023-08-29T08:30:36.884Z,50.852779
2023-08-29T08:31:36.897Z,50.852764
2023-08-29T08:32:36.887Z,50.852768
2023-08-29T08:33:36.861Z,50.852764
2023-08-29T08:34:36.841Z,50.852726
2023-08-29T08:35:41.434Z,50.852734
2023-08-29T08:36:37.822Z,50.852749
2023-08-29T08:37:36.799Z,50.852783
2023-08-29T08:38:36.806Z,50.852779
2023-08-29T08:39:36.822Z,50.852791
2023-08-29T08:40:36.783Z,50.852764
2023-08-29T08:41:36.776Z,50.852818
2023-08-29T08:42:36.789Z,50.852806
2023-08-29T08:43:36.744Z,50.852783
2023-08-29T08:44:36.764Z,50.852772
2023-08-29T08:45:36.759Z,50.852772
2023-08-29T08:46:36.754Z,50.852768
2023-08-29T08:47:36.734Z,50.852760
2023-08-29T08:48:36.741Z,50.852787
2023-08-29T08:49:36.683Z,50.852741
2023-08-29T08:50:36.700Z,50.852772
2023-08-29T08:51:36.695Z,50.852791
2023-08-29T08:52:36.704Z,50.852764
2023-08-29T08:53:36.665Z,50.852634
2023-08-29T08:54:36.668Z,50.852356
2023-08-29T08:55:36.669Z,50.852592
2023-08-29T08:56:36.683Z,50.852699
2023-08-29T08:57:36.639Z,50.852737
2023-08-29T08:58:36.666Z,50.852711
2023-08-29T08:59:36.639Z,50.852722
2023-08-29T09:00:36.681Z,50.852737
2023-08-29T09:01:36.688Z,50.852680
2023-08-29T09:02:36.609Z,50.852695
2023-08-29T09:03:36.759Z,50.852695
2023-08-29T09:04:36.632Z,50.852634
2023-08-29T09:05:36.602Z,50.852619
2023-08-29T09:06:36.579Z,50.852650
2023-08-29T09:07:36.565Z,50.852699
2023-08-29T09:08:36.612Z,50.852711
2023-08-29T09:09:36.549Z,50.852715
2023-08-29T09:10:36.560Z,50.852684
2023-08-29T09:11:36.574Z,50.852665
2023-08-29T09:12:36.523Z,50.852669
2023-08-29T09:13:36.507Z,50.852680
2023-08-29T09:14:36.526Z,50.852676
2023-08-29T09:15:36.493Z,50.852707
2023-08-29T09:16:36.504Z,50.852695
2023-08-29T09:17:36.521Z,50.852722
2023-08-29T09:18:36.493Z,50.852734
2023-08-29T09:19:36.480Z,50.852722
2023-08-29T09:20:36.485Z,50.852699
2023-08-29T09:21:36.760Z,50.852680
2023-08-29T09:22:36.444Z,50.852703
2023-08-29T09:23:36.463Z,50.852707
2023-08-29T09:24:36.447Z,50.852699
2023-08-29T09:25:36.428Z,50.852695
2023-08-29T09:26:36.451Z,50.852707
2023-08-29T09:27:36.462Z,50.852741
2023-08-29T09:28:36.427Z,50.852673
2023-08-29T09:29:36.396Z,50.852669
2023-08-29T09:30:36.400Z,50.852646
2023-08-29T09:31:36.404Z,50.852722
2023-08-29T09:32:36.426Z,50.852711
2023-08-29T09:33:36.394Z,50.852688
2023-08-29T09:34:36.394Z,50.852718
2023-08-29T09:35:36.387Z,50.852680
2023-08-29T09:36:36.379Z,50.852634
2023-08-29T09:37:36.353Z,50.852699
2023-08-29T09:38:36.388Z,50.852718
2023-08-29T09:39:36.326Z,50.852722
2023-08-29T09:40:40.834Z,50.852764
2023-08-29T09:41:37.342Z,50.852734
2023-08-29T09:42:36.347Z,50.852730
2023-08-29T09:43:36.293Z,50.852734
2023-08-29T09:44:36.435Z,50.852722
2023-08-29T09:45:36.455Z,50.852703
2023-08-29T09:46:36.308Z,50.852722
2023-08-29T09:47:36.305Z,50.852707
2023-08-29T09:48:36.297Z,50.852707
2023-08-29T09:49:36.274Z,50.852711
2023-08-29T09:50:36.328Z,50.852703
2023-08-29T09:51:36.246Z,50.852707
2023-08-29T09:52:36.265Z,50.852695
2023-08-29T09:53:36.242Z,50.852711
2023-08-29T09:54:36.227Z,50.852703
2023-08-29T09:55:36.219Z,50.852730
2023-08-29T09:56:36.255Z,50.852722
2023-08-29T09:57:36.195Z,50.852695
2023-08-29T09:58:36.206Z,50.852726
2023-08-29T09:59:36.174Z,50.852749
2023-08-29T10:00:36.231Z,50.852715
2023-08-29T10:01:36.220Z,50.852730
2023-08-29T10:02:36.314Z,50.852737
2023-08-29T10:03:36.230Z,50.852760
2023-08-29T10:04:36.161Z,50.852715
2023-08-29T10:05:36.190Z,50.852711
2023-08-29T10:06:36.179Z,50.852715
2023-08-29T10:07:36.121Z,50.852726
2023-08-29T10:08:36.267Z,50.852722
2023-08-29T10:09:36.140Z,50.852745
2023-08-29T10:10:36.119Z,50.852749
2023-08-29T10:11:48.603Z,50.852734
2023-08-29T10:12:37.130Z,50.852783
2023-08-29T10:13:36.178Z,50.852760
2023-08-29T10:14:36.099Z,50.852741
2023-08-29T10:15:38.618Z,50.852749
2023-08-29T10:16:36.147Z,50.852741
2023-08-29T10:17:36.282Z,50.852726
2023-08-29T10:18:36.135Z,50.852722
2023-08-29T10:19:36.025Z,50.852741
2023-08-29T10:20:36.107Z,50.852730
2023-08-29T10:21:36.011Z,50.852741
2023-08-29T10:22:36.045Z,50.852741
2023-08-29T10:23:36.015Z,50.852718
2023-08-29T10:24:36.005Z,50.852699
2023-08-29T10:25:36.100Z,50.852722
2023-08-29T10:26:36.181Z,50.852783
2023-08-29T10:27:35.980Z,50.852806
2023-08-29T10:28:35.999Z,50.852772
2023-08-29T10:29:35.978Z,50.852791
2023-08-29T10:30:36.024Z,50.852795
2023-08-29T10:31:35.974Z,50.852833
2023-08-29T10:32:36.075Z,50.852806
2023-08-29T10:33:35.948Z,50.852840
2023-08-29T10:34:35.963Z,50.852810
2023-08-29T10:35:36.047Z,50.852779
2023-08-29T10:36:35.949Z,50.852783
2023-08-29T10:37:35.920Z,50.852806
2023-08-29T10:38:35.950Z,50.852757
2023-08-29T10:39:35.895Z,50.852776
2023-08-29T10:40:35.893Z,50.852764
2023-08-29T10:41:35.873Z,50.852768
2023-08-29T10:42:35.907Z,50.852806
2023-08-29T10:43:35.852Z,50.852760
2023-08-29T10:44:35.880Z,50.852776
2023-08-29T10:45:35.841Z,50.852787
2023-08-29T10:46:35.860Z,50.852795
2023-08-29T10:47:35.882Z,50.852772
2023-08-29T10:48:35.854Z,50.852798
2023-08-29T10:49:35.822Z,50.852806
2023-08-29T10:50:35.817Z,50.852829
2023-08-29T10:51:35.810Z,50.852779
2023-08-29T10:52:35.821Z,50.852760
2023-08-29T10:53:35.782Z,50.852726
2023-08-29T10:54:35.791Z,50.852791
2023-08-29T10:55:35.818Z,50.852779
2023-08-29T10:56:35.794Z,50.852783
2023-08-29T10:57:35.754Z,50.852757
2023-08-29T10:58:35.817Z,50.852772
2023-08-29T10:59:35.752Z,50.852837
2023-08-29T11:00:35.824Z,50.852787
2023-08-29T11:01:35.725Z,50.852814
2023-08-29T11:02:35.741Z,50.852779
2023-08-29T11:03:35.702Z,50.852837
2023-08-29T11:04:45.525Z,50.852837
2023-08-29T11:05:36.763Z,50.852810
2023-08-29T11:06:35.709Z,50.852810
2023-08-29T11:07:35.711Z,50.852825
2023-08-29T11:08:35.698Z,50.852825
2023-08-29T11:09:35.669Z,50.852837
2023-08-29T11:10:35.680Z,50.852814
2023-08-29T11:11:35.718Z,50.852829
2023-08-29T11:12:35.664Z,50.852840
2023-08-29T11:13:35.656Z,50.852814
2023-08-29T11:14:35.654Z,50.852840
2023-08-29T11:15:35.655Z,50.852837
2023-08-29T11:16:35.659Z,50.852837
2023-08-29T11:17:35.647Z,50.852821
2023-08-29T11:18:35.676Z,50.852829
2023-08-29T11:19:35.624Z,50.852833
2023-08-29T11:20:35.640Z,50.852810
2023-08-29T11:21:35.592Z,50.852798
2023-08-29T11:22:35.594Z,50.852821
2023-08-29T11:23:35.590Z,50.852859
2023-08-29T11:24:35.595Z,50.852818